AFR366V LFBT-EPBY
Flight info
| Callsign | AFR366V |
|---|---|
| Flight time | 2h 33m |
| Altitude | 38000 |
| Route | TOU 2R DITEV OTROT OMASI N871 SOSAL SOPER GERSA DISUN TOMTI P733 ADVAB |
| Aircraft | A319/M-L/3260 |
Departure
| Time | 2026-05-04 12:41 |
|---|---|
| Airport | Tarbes-Lourdes-Pyrénées Airport (LFBT) |
Arrival
| Time | 2026-05-04 15:14 |
|---|---|
| Airport | Ignacy Jan Paderewski Bydgoszcz Airport (EPBY) |
| Time | Latitude | Longitude | Altitude | Speed | Heading |
|---|---|---|---|---|---|
| 2026-05-04 12:34 | 43.18748 | -0.00298 | 1271 ft | 0 kts | 110° |
| 2026-05-04 12:37 | 43.18748 | -0.00297 | 1271 ft | 0 kts | 110° |
| 2026-05-04 12:38 | 43.18748 | -0.00296 | 1271 ft | 1 kts | 110° |
| 2026-05-04 12:38 | 43.18743 | -0.00280 | 1271 ft | 2 kts | 110° |
| 2026-05-04 12:38 | 43.18736 | -0.00253 | 1271 ft | 4 kts | 110° |
| 2026-05-04 12:39 | 43.18737 | -0.00208 | 1271 ft | 8 kts | 64° |
| 2026-05-04 12:39 | 43.18814 | -0.00145 | 1271 ft | 19 kts | 18° |
| 2026-05-04 12:39 | 43.18973 | -0.00071 | 1271 ft | 26 kts | 22° |
| 2026-05-04 12:39 | 43.19109 | 0.00008 | 1271 ft | 14 kts | 33° |
| 2026-05-04 12:40 | 43.19131 | 0.00019 | 1271 ft | 1 kts | 313° |
| 2026-05-04 12:40 | 43.19131 | 0.00011 | 1271 ft | 1 kts | 248° |
| 2026-05-04 12:40 | 43.19125 | 0.00005 | 1271 ft | 3 kts | 213° |
| 2026-05-04 12:40 | 43.19111 | -0.00004 | 1271 ft | 0 kts | 202° |
| 2026-05-04 12:41 | 43.18960 | -0.00085 | 1271 ft | 65 kts | 201° |
| 2026-05-04 12:41 | 43.18249 | -0.00448 | 1276 ft | 149 kts | 200° |
| 2026-05-04 12:41 | 43.17248 | -0.00957 | 1915 ft | 147 kts | 199° |
| 2026-05-04 12:42 | 43.16316 | -0.01430 | 2366 ft | 147 kts | 198° |
| 2026-05-04 12:42 | 43.15311 | -0.01928 | 2857 ft | 161 kts | 196° |
| 2026-05-04 12:42 | 43.14141 | -0.01882 | 3305 ft | 177 kts | 165° |
| 2026-05-04 12:42 | 43.12987 | -0.01196 | 3832 ft | 192 kts | 151° |
| 2026-05-04 12:43 | 43.11789 | -0.00187 | 4403 ft | 210 kts | 145° |
| 2026-05-04 12:43 | 43.10577 | 0.01069 | 5006 ft | 229 kts | 141° |
| 2026-05-04 12:43 | 43.09278 | 0.02528 | 5172 ft | 245 kts | 140° |
| 2026-05-04 12:43 | 43.07964 | 0.04045 | 5648 ft | 250 kts | 139° |
| 2026-05-04 12:44 | 43.06630 | 0.05606 | 6127 ft | 253 kts | 139° |
| 2026-05-04 12:44 | 43.05278 | 0.07206 | 6664 ft | 263 kts | 140° |
| 2026-05-04 12:44 | 43.03873 | 0.08888 | 7306 ft | 274 kts | 140° |
| 2026-05-04 12:44 | 43.02431 | 0.10638 | 7939 ft | 277 kts | 139° |
| 2026-05-04 12:45 | 43.01013 | 0.12379 | 8559 ft | 277 kts | 139° |
| 2026-05-04 12:45 | 42.99837 | 0.14492 | 9177 ft | 280 kts | 116° |
| 2026-05-04 12:45 | 42.99449 | 0.17110 | 9807 ft | 287 kts | 90° |
| 2026-05-04 12:45 | 42.99904 | 0.19748 | 10443 ft | 293 kts | 69° |
| 2026-05-04 12:46 | 43.00870 | 0.22223 | 11070 ft | 299 kts | 59° |
| 2026-05-04 12:46 | 43.02088 | 0.24585 | 11733 ft | 308 kts | 54° |
| 2026-05-04 12:46 | 43.03431 | 0.26897 | 12563 ft | 312 kts | 52° |
| 2026-05-04 12:46 | 43.04828 | 0.29198 | 13389 ft | 316 kts | 52° |
| 2026-05-04 12:47 | 43.05765 | 0.30732 | 13935 ft | 318 kts | 52° |
| 2026-05-04 12:47 | 43.07183 | 0.33069 | 14759 ft | 320 kts | 52° |
| 2026-05-04 12:47 | 43.08595 | 0.35446 | 15585 ft | 322 kts | 53° |
| 2026-05-04 12:47 | 43.10447 | 0.38617 | 16633 ft | 324 kts | 53° |
| 2026-05-04 12:48 | 43.11861 | 0.41062 | 17255 ft | 331 kts | 53° |
| 2026-05-04 12:48 | 43.12833 | 0.42757 | 17665 ft | 336 kts | 53° |
| 2026-05-04 12:48 | 43.14285 | 0.45299 | 18268 ft | 343 kts | 53° |
| 2026-05-04 12:48 | 43.15764 | 0.47908 | 18845 ft | 351 kts | 53° |
| 2026-05-04 12:49 | 43.17257 | 0.50562 | 19296 ft | 363 kts | 53° |
| 2026-05-04 12:49 | 43.18843 | 0.53386 | 19739 ft | 375 kts | 52° |
| 2026-05-04 12:49 | 43.20449 | 0.56226 | 20176 ft | 388 kts | 52° |
| 2026-05-04 12:49 | 43.22128 | 0.59199 | 20633 ft | 399 kts | 52° |
| 2026-05-04 12:50 | 43.23844 | 0.62240 | 21089 ft | 409 kts | 52° |
| 2026-05-04 12:50 | 43.25601 | 0.65343 | 21544 ft | 415 kts | 52° |
| 2026-05-04 12:50 | 43.27389 | 0.68504 | 22000 ft | 423 kts | 52° |
| 2026-05-04 12:50 | 43.29201 | 0.71703 | 22453 ft | 426 kts | 52° |
| 2026-05-04 12:51 | 43.31030 | 0.74898 | 22905 ft | 418 kts | 52° |
| 2026-05-04 12:51 | 43.32840 | 0.78062 | 23357 ft | 424 kts | 53° |
| 2026-05-04 12:51 | 43.34679 | 0.81286 | 23807 ft | 433 kts | 51° |
| 2026-05-04 12:51 | 43.36561 | 0.84586 | 24247 ft | 441 kts | 51° |
| 2026-05-04 12:52 | 43.38455 | 0.87909 | 24675 ft | 443 kts | 51° |
| 2026-05-04 12:52 | 43.40364 | 0.91270 | 25103 ft | 447 kts | 51° |
| 2026-05-04 12:52 | 43.42294 | 0.94673 | 25532 ft | 451 kts | 51° |
| 2026-05-04 12:52 | 43.44211 | 0.98027 | 25962 ft | 454 kts | 50° |
| 2026-05-04 12:53 | 43.46176 | 1.01455 | 26197 ft | 456 kts | 50° |
| 2026-05-04 12:53 | 43.48135 | 1.04917 | 26582 ft | 460 kts | 51° |
| 2026-05-04 12:53 | 43.50088 | 1.08421 | 27042 ft | 463 kts | 51° |
| 2026-05-04 12:53 | 43.52043 | 1.11963 | 27516 ft | 464 kts | 51° |
| 2026-05-04 12:54 | 43.53990 | 1.15520 | 27990 ft | 465 kts | 51° |
| 2026-05-04 12:54 | 43.55947 | 1.19090 | 28466 ft | 468 kts | 51° |
| 2026-05-04 12:54 | 43.57905 | 1.22635 | 28970 ft | 460 kts | 52° |
| 2026-05-04 12:54 | 43.59855 | 1.26170 | 29494 ft | 459 kts | 53° |
| 2026-05-04 12:55 | 43.61761 | 1.29629 | 30011 ft | 457 kts | 54° |
| 2026-05-04 12:55 | 43.63672 | 1.33125 | 30533 ft | 456 kts | 54° |
| 2026-05-04 12:55 | 43.65584 | 1.36617 | 31056 ft | 456 kts | 53° |
| 2026-05-04 12:55 | 43.67505 | 1.40097 | 31579 ft | 455 kts | 53° |
| 2026-05-04 12:56 | 43.69422 | 1.43569 | 32091 ft | 454 kts | 53° |
| 2026-05-04 12:56 | 43.71336 | 1.47046 | 32593 ft | 452 kts | 53° |
| 2026-05-04 12:56 | 43.73246 | 1.50491 | 33091 ft | 451 kts | 52° |
| 2026-05-04 12:56 | 43.75149 | 1.53920 | 33588 ft | 449 kts | 52° |
| 2026-05-04 12:57 | 43.77042 | 1.57343 | 34088 ft | 446 kts | 52° |
| 2026-05-04 12:57 | 43.78922 | 1.60749 | 34586 ft | 443 kts | 52° |
| 2026-05-04 12:57 | 43.80800 | 1.64129 | 35049 ft | 441 kts | 51° |
| 2026-05-04 12:57 | 43.82673 | 1.67491 | 35504 ft | 439 kts | 51° |
| 2026-05-04 12:58 | 43.84538 | 1.70838 | 35953 ft | 436 kts | 51° |
| 2026-05-04 12:58 | 43.86375 | 1.74134 | 36168 ft | 440 kts | 51° |
| 2026-05-04 12:58 | 43.88266 | 1.77527 | 36345 ft | 444 kts | 51° |
| 2026-05-04 12:58 | 43.90155 | 1.80927 | 36583 ft | 446 kts | 52° |
| 2026-05-04 12:59 | 43.92039 | 1.84370 | 36832 ft | 448 kts | 52° |
| 2026-05-04 12:59 | 43.93889 | 1.87810 | 37079 ft | 449 kts | 52° |
| 2026-05-04 12:59 | 43.95758 | 1.91292 | 37329 ft | 450 kts | 52° |
| 2026-05-04 12:59 | 43.97634 | 1.94790 | 37580 ft | 451 kts | 52° |
| 2026-05-04 13:00 | 43.99510 | 1.98293 | 37830 ft | 452 kts | 52° |
| 2026-05-04 13:00 | 44.01388 | 2.01803 | 38046 ft | 453 kts | 52° |
| 2026-05-04 13:00 | 44.03279 | 2.05340 | 38163 ft | 457 kts | 52° |
| 2026-05-04 13:01 | 44.07085 | 2.12464 | 38195 ft | 464 kts | 52° |
| 2026-05-04 13:01 | 44.10952 | 2.19710 | 38183 ft | 467 kts | 52° |
| 2026-05-04 13:02 | 44.14834 | 2.26953 | 38175 ft | 466 kts | 52° |
| 2026-05-04 13:02 | 44.18737 | 2.34174 | 38172 ft | 466 kts | 52° |
| 2026-05-04 13:03 | 44.22610 | 2.41407 | 38170 ft | 466 kts | 52° |
| 2026-05-04 13:03 | 44.26518 | 2.48623 | 38170 ft | 466 kts | 52° |
| 2026-05-04 13:04 | 44.30405 | 2.55857 | 38170 ft | 467 kts | 52° |
| 2026-05-04 13:04 | 44.34294 | 2.63069 | 38170 ft | 466 kts | 52° |
| 2026-05-04 13:05 | 44.38188 | 2.70330 | 38170 ft | 466 kts | 52° |
| 2026-05-04 13:05 | 44.42050 | 2.77613 | 38170 ft | 466 kts | 52° |
| 2026-05-04 13:06 | 44.45908 | 2.84917 | 38171 ft | 466 kts | 53° |
| 2026-05-04 13:06 | 44.49680 | 2.92310 | 38174 ft | 466 kts | 56° |
| 2026-05-04 13:07 | 44.53027 | 3.00097 | 38180 ft | 466 kts | 60° |
| 2026-05-04 13:07 | 44.56081 | 3.07946 | 38181 ft | 457 kts | 62° |
| 2026-05-04 13:08 | 44.59108 | 3.15746 | 38190 ft | 458 kts | 61° |
| 2026-05-04 13:08 | 44.62235 | 3.23531 | 38191 ft | 458 kts | 60° |
| 2026-05-04 13:09 | 44.65402 | 3.31289 | 38193 ft | 458 kts | 60° |
| 2026-05-04 13:09 | 44.68580 | 3.39044 | 38195 ft | 458 kts | 60° |
| 2026-05-04 13:10 | 44.71786 | 3.46787 | 38194 ft | 458 kts | 59° |
| 2026-05-04 13:10 | 44.74973 | 3.54543 | 38195 ft | 457 kts | 60° |
| 2026-05-04 13:11 | 44.78184 | 3.62272 | 38196 ft | 457 kts | 59° |
| 2026-05-04 13:11 | 44.81362 | 3.69981 | 38194 ft | 457 kts | 59° |
| 2026-05-04 13:12 | 44.84586 | 3.77721 | 38192 ft | 457 kts | 59° |
| 2026-05-04 13:12 | 44.87773 | 3.85490 | 38189 ft | 457 kts | 60° |
| 2026-05-04 13:13 | 44.90910 | 3.93312 | 38190 ft | 457 kts | 60° |
| 2026-05-04 13:13 | 44.94001 | 4.01160 | 38186 ft | 457 kts | 60° |
| 2026-05-04 13:14 | 44.97114 | 4.08935 | 38181 ft | 457 kts | 60° |
| 2026-05-04 13:14 | 45.00256 | 4.16748 | 38180 ft | 458 kts | 60° |
| 2026-05-04 13:15 | 45.03389 | 4.24590 | 38175 ft | 458 kts | 60° |
| 2026-05-04 13:15 | 45.06546 | 4.32429 | 38164 ft | 458 kts | 60° |
| 2026-05-04 13:16 | 45.09693 | 4.40265 | 38153 ft | 458 kts | 60° |
| 2026-05-04 13:16 | 45.12876 | 4.47993 | 38141 ft | 454 kts | 55° |
| 2026-05-04 13:17 | 45.16586 | 4.55262 | 38141 ft | 454 kts | 51° |
| 2026-05-04 13:17 | 45.20500 | 4.62303 | 38126 ft | 454 kts | 50° |
| 2026-05-04 13:18 | 45.24360 | 4.69318 | 38120 ft | 454 kts | 51° |
| 2026-05-04 13:18 | 45.28161 | 4.76498 | 38131 ft | 454 kts | 52° |
| 2026-05-04 13:19 | 45.31917 | 4.83722 | 38131 ft | 454 kts | 52° |
| 2026-05-04 13:19 | 45.35404 | 4.90468 | 38126 ft | 454 kts | 52° |
| 2026-05-04 13:20 | 45.39193 | 4.97687 | 38122 ft | 454 kts | 51° |
| 2026-05-04 13:20 | 45.42966 | 5.04813 | 38124 ft | 454 kts | 52° |
| 2026-05-04 13:21 | 45.46756 | 5.12042 | 38125 ft | 454 kts | 51° |
| 2026-05-04 13:21 | 45.50564 | 5.19237 | 38132 ft | 454 kts | 51° |
| 2026-05-04 13:22 | 45.54355 | 5.26460 | 38132 ft | 454 kts | 52° |
| 2026-05-04 13:22 | 45.58079 | 5.33676 | 38118 ft | 454 kts | 52° |
| 2026-05-04 13:23 | 45.61796 | 5.40929 | 38119 ft | 444 kts | 53° |
| 2026-05-04 13:23 | 45.65426 | 5.48039 | 38133 ft | 443 kts | 52° |
| 2026-05-04 13:24 | 45.69030 | 5.55155 | 38131 ft | 439 kts | 52° |
| 2026-05-04 13:24 | 45.72623 | 5.62238 | 38121 ft | 440 kts | 52° |
| 2026-05-04 13:25 | 45.78029 | 5.72807 | 38134 ft | 440 kts | 52° |
| 2026-05-04 13:25 | 45.81652 | 5.79866 | 38137 ft | 440 kts | 52° |
| 2026-05-04 13:26 | 45.85286 | 5.86959 | 38138 ft | 440 kts | 52° |
| 2026-05-04 13:26 | 45.88881 | 5.93999 | 38140 ft | 440 kts | 52° |
| 2026-05-04 13:27 | 45.92659 | 6.00908 | 38144 ft | 438 kts | 45° |
| 2026-05-04 13:27 | 45.97011 | 6.07033 | 38150 ft | 437 kts | 40° |
| 2026-05-04 13:28 | 46.01538 | 6.12872 | 38147 ft | 437 kts | 40° |
| 2026-05-04 13:28 | 46.05990 | 6.18763 | 38146 ft | 437 kts | 41° |
| 2026-05-04 13:29 | 46.10380 | 6.24822 | 38163 ft | 437 kts | 42° |
| 2026-05-04 13:29 | 46.14742 | 6.30947 | 38168 ft | 437 kts | 43° |
| 2026-05-04 13:30 | 46.19098 | 6.37096 | 38163 ft | 437 kts | 43° |
| 2026-05-04 13:30 | 46.23477 | 6.43197 | 38162 ft | 437 kts | 42° |
| 2026-05-04 13:31 | 46.27837 | 6.49238 | 38175 ft | 437 kts | 42° |
| 2026-05-04 13:31 | 46.32214 | 6.55316 | 38179 ft | 437 kts | 42° |
| 2026-05-04 13:32 | 46.36546 | 6.61328 | 38170 ft | 425 kts | 43° |
| 2026-05-04 13:32 | 46.40816 | 6.67299 | 38165 ft | 427 kts | 43° |
| 2026-05-04 13:33 | 46.45085 | 6.73262 | 38191 ft | 425 kts | 42° |
| 2026-05-04 13:33 | 46.49350 | 6.79212 | 38196 ft | 426 kts | 43° |
| 2026-05-04 13:34 | 46.53519 | 6.85258 | 38155 ft | 427 kts | 47° |
| 2026-05-04 13:34 | 46.56748 | 6.92492 | 38150 ft | 430 kts | 64° |
| 2026-05-04 13:35 | 46.59161 | 7.05201 | 38182 ft | 438 kts | 78° |
| 2026-05-04 13:36 | 46.60030 | 7.12466 | 38155 ft | 438 kts | 78° |
| 2026-05-04 13:36 | 46.61179 | 7.21174 | 38161 ft | 437 kts | 76° |
| 2026-05-04 13:37 | 46.62519 | 7.29821 | 38159 ft | 438 kts | 75° |
| 2026-05-04 13:37 | 46.63975 | 7.38416 | 38142 ft | 438 kts | 75° |
| 2026-05-04 13:38 | 46.65403 | 7.46955 | 38151 ft | 437 kts | 75° |
| 2026-05-04 13:38 | 46.66833 | 7.55554 | 38152 ft | 434 kts | 74° |
| 2026-05-04 13:39 | 46.68284 | 7.64089 | 38158 ft | 434 kts | 74° |
| 2026-05-04 13:39 | 46.69716 | 7.72639 | 38164 ft | 435 kts | 74° |
| 2026-05-04 13:40 | 46.71162 | 7.81187 | 38168 ft | 435 kts | 74° |
| 2026-05-04 13:40 | 46.72606 | 7.89750 | 38170 ft | 435 kts | 74° |
| 2026-05-04 13:41 | 46.73997 | 7.98274 | 38171 ft | 435 kts | 74° |
| 2026-05-04 13:41 | 46.74984 | 8.02429 | 38176 ft | 432 kts | 63° |
| 2026-05-04 13:41 | 46.76405 | 8.06280 | 38181 ft | 430 kts | 56° |
| 2026-05-04 13:42 | 46.82162 | 8.16252 | 38158 ft | 428 kts | 46° |
| 2026-05-04 13:42 | 46.86159 | 8.22723 | 38076 ft | 429 kts | 47° |
| 2026-05-04 13:43 | 46.90069 | 8.29287 | 37887 ft | 426 kts | 47° |
| 2026-05-04 13:43 | 46.93901 | 8.35840 | 37800 ft | 427 kts | 48° |
| 2026-05-04 13:44 | 46.97709 | 8.42525 | 37781 ft | 428 kts | 51° |
| 2026-05-04 13:44 | 47.00871 | 8.49943 | 37721 ft | 429 kts | 60° |
| 2026-05-04 13:45 | 47.03438 | 8.57859 | 37707 ft | 430 kts | 64° |
| 2026-05-04 13:45 | 47.05866 | 8.65823 | 37739 ft | 431 kts | 64° |
| 2026-05-04 13:46 | 47.08408 | 8.73783 | 37766 ft | 430 kts | 62° |
| 2026-05-04 13:46 | 47.11058 | 8.81648 | 37828 ft | 425 kts | 61° |
| 2026-05-04 13:47 | 47.12384 | 8.85511 | 37961 ft | 422 kts | 60° |
| 2026-05-04 13:47 | 47.13707 | 8.89373 | 38074 ft | 426 kts | 61° |
| 2026-05-04 13:47 | 47.16355 | 8.97190 | 38133 ft | 427 kts | 61° |
| 2026-05-04 13:48 | 47.19024 | 9.04989 | 38177 ft | 427 kts | 61° |
| 2026-05-04 13:48 | 47.21693 | 9.12797 | 38238 ft | 428 kts | 60° |
| 2026-05-04 13:49 | 47.24370 | 9.20598 | 38251 ft | 426 kts | 60° |
| 2026-05-04 13:49 | 47.27015 | 9.28367 | 38254 ft | 426 kts | 60° |
| 2026-05-04 13:50 | 47.29673 | 9.36174 | 38256 ft | 425 kts | 60° |
| 2026-05-04 13:50 | 47.32366 | 9.43941 | 38258 ft | 426 kts | 60° |
| 2026-05-04 13:51 | 47.35009 | 9.51781 | 38258 ft | 427 kts | 61° |
| 2026-05-04 13:51 | 47.37579 | 9.59651 | 38258 ft | 427 kts | 61° |
| 2026-05-04 13:52 | 47.41415 | 9.71530 | 38258 ft | 427 kts | 61° |
| 2026-05-04 13:53 | 47.43965 | 9.79454 | 38258 ft | 427 kts | 61° |
| 2026-05-04 13:53 | 47.46544 | 9.87366 | 38260 ft | 427 kts | 61° |
| 2026-05-04 13:54 | 47.50429 | 9.99204 | 38270 ft | 426 kts | 61° |
| 2026-05-04 13:55 | 47.54331 | 10.11050 | 38277 ft | 426 kts | 61° |
| 2026-05-04 13:55 | 47.56853 | 10.18753 | 38284 ft | 408 kts | 61° |
| 2026-05-04 13:55 | 47.58073 | 10.22502 | 38291 ft | 411 kts | 61° |
| 2026-05-04 13:56 | 47.60601 | 10.30120 | 38300 ft | 411 kts | 60° |
| 2026-05-04 13:57 | 47.64376 | 10.41565 | 38311 ft | 411 kts | 61° |
| 2026-05-04 13:58 | 47.69303 | 10.56886 | 38317 ft | 412 kts | 61° |
| 2026-05-04 13:58 | 47.72942 | 10.68405 | 38321 ft | 412 kts | 61° |
| 2026-05-04 13:59 | 47.75383 | 10.76121 | 38322 ft | 412 kts | 61° |
| 2026-05-04 14:00 | 47.79061 | 10.87691 | 38319 ft | 412 kts | 61° |
| 2026-05-04 14:00 | 47.82737 | 10.99221 | 38328 ft | 412 kts | 61° |
| 2026-05-04 14:01 | 47.85201 | 11.06977 | 38329 ft | 413 kts | 61° |
| 2026-05-04 14:01 | 47.88356 | 11.13914 | 38328 ft | 405 kts | 44° |
| 2026-05-04 14:02 | 47.90386 | 11.16814 | 38336 ft | 402 kts | 38° |
| 2026-05-04 14:02 | 47.94761 | 11.21974 | 38340 ft | 400 kts | 35° |
| 2026-05-04 14:03 | 47.99203 | 11.26997 | 38336 ft | 400 kts | 36° |
| 2026-05-04 14:03 | 48.03553 | 11.32210 | 38500 ft | 400 kts | 37° |
| 2026-05-04 14:03 | 48.05698 | 11.34874 | 38654 ft | 401 kts | 37° |
| 2026-05-04 14:04 | 48.09977 | 11.40266 | 38957 ft | 402 kts | 38° |
| 2026-05-04 14:04 | 48.12116 | 11.42986 | 39104 ft | 403 kts | 38° |
| 2026-05-04 14:04 | 48.14223 | 11.45672 | 39241 ft | 403 kts | 38° |
| 2026-05-04 14:05 | 48.18505 | 11.51146 | 39355 ft | 405 kts | 38° |
| 2026-05-04 14:05 | 48.20655 | 11.53896 | 39364 ft | 406 kts | 38° |
| 2026-05-04 14:06 | 48.24963 | 11.59368 | 39361 ft | 406 kts | 38° |
| 2026-05-04 14:06 | 48.29295 | 11.64820 | 39379 ft | 406 kts | 37° |
| 2026-05-04 14:07 | 48.33633 | 11.70277 | 39368 ft | 406 kts | 37° |
| 2026-05-04 14:07 | 48.37941 | 11.75708 | 39377 ft | 406 kts | 37° |
| 2026-05-04 14:08 | 48.42285 | 11.81186 | 39384 ft | 406 kts | 38° |
| 2026-05-04 14:08 | 48.46608 | 11.86689 | 39385 ft | 406 kts | 38° |
| 2026-05-04 14:09 | 48.53010 | 11.94969 | 39377 ft | 405 kts | 38° |
| 2026-05-04 14:10 | 48.59320 | 12.03260 | 39383 ft | 394 kts | 38° |
| 2026-05-04 14:10 | 48.63483 | 12.08676 | 39376 ft | 395 kts | 38° |
| 2026-05-04 14:11 | 48.67647 | 12.14099 | 39375 ft | 395 kts | 38° |
| 2026-05-04 14:11 | 48.73875 | 12.22201 | 39377 ft | 395 kts | 38° |
| 2026-05-04 14:12 | 48.78047 | 12.27626 | 39377 ft | 395 kts | 38° |
| 2026-05-04 14:13 | 48.84318 | 12.35773 | 39377 ft | 395 kts | 38° |
| 2026-05-04 14:13 | 48.88478 | 12.41174 | 39377 ft | 395 kts | 38° |
| 2026-05-04 14:14 | 48.92662 | 12.46604 | 39377 ft | 395 kts | 38° |
| 2026-05-04 14:14 | 48.98926 | 12.54784 | 39377 ft | 396 kts | 39° |
| 2026-05-04 14:15 | 49.07181 | 12.65836 | 39377 ft | 395 kts | 39° |
| 2026-05-04 14:16 | 49.13357 | 12.74171 | 39380 ft | 395 kts | 39° |
| 2026-05-04 14:17 | 49.19529 | 12.82471 | 39389 ft | 395 kts | 39° |
| 2026-05-04 14:18 | 49.25718 | 12.90786 | 39399 ft | 394 kts | 39° |
| 2026-05-04 14:19 | 49.33866 | 13.01719 | 39415 ft | 388 kts | 39° |
| 2026-05-04 14:19 | 49.37929 | 13.07161 | 39422 ft | 388 kts | 39° |
| 2026-05-04 14:20 | 49.41999 | 13.12618 | 39429 ft | 387 kts | 39° |
| 2026-05-04 14:20 | 49.46061 | 13.18072 | 39432 ft | 388 kts | 39° |
| 2026-05-04 14:21 | 49.52129 | 13.26234 | 39434 ft | 387 kts | 39° |
| 2026-05-04 14:21 | 49.56197 | 13.31713 | 39436 ft | 388 kts | 39° |
| 2026-05-04 14:22 | 49.60265 | 13.37207 | 39436 ft | 388 kts | 40° |
| 2026-05-04 14:22 | 49.64285 | 13.42781 | 39436 ft | 389 kts | 40° |
| 2026-05-04 14:23 | 49.70278 | 13.51182 | 39436 ft | 389 kts | 40° |
| 2026-05-04 14:24 | 49.73628 | 13.55827 | 39436 ft | 389 kts | 40° |
| 2026-05-04 14:24 | 49.77662 | 13.61428 | 39436 ft | 389 kts | 40° |
| 2026-05-04 14:25 | 49.81704 | 13.67036 | 39436 ft | 389 kts | 39° |
| 2026-05-04 14:25 | 49.87086 | 13.74483 | 39436 ft | 390 kts | 39° |
| 2026-05-04 14:26 | 49.91796 | 13.80999 | 39436 ft | 390 kts | 39° |
| 2026-05-04 14:26 | 49.95842 | 13.86603 | 39438 ft | 390 kts | 39° |
| 2026-05-04 14:27 | 49.99895 | 13.92226 | 39436 ft | 390 kts | 39° |
| 2026-05-04 14:27 | 50.03942 | 13.97846 | 39436 ft | 390 kts | 39° |
| 2026-05-04 14:28 | 50.07990 | 14.03478 | 39436 ft | 390 kts | 39° |
| 2026-05-04 14:28 | 50.12040 | 14.09119 | 39436 ft | 390 kts | 39° |
| 2026-05-04 14:29 | 50.20069 | 14.20441 | 39435 ft | 390 kts | 40° |
| 2026-05-04 14:30 | 50.24052 | 14.26217 | 39436 ft | 390 kts | 40° |
| 2026-05-04 14:31 | 50.30056 | 14.34852 | 39436 ft | 390 kts | 40° |
| 2026-05-04 14:32 | 50.38031 | 14.46288 | 39435 ft | 390 kts | 40° |
| 2026-05-04 14:32 | 50.42047 | 14.52040 | 39436 ft | 390 kts | 40° |
| 2026-05-04 14:33 | 50.46067 | 14.57794 | 39436 ft | 391 kts | 40° |
| 2026-05-04 14:33 | 50.50076 | 14.63531 | 39436 ft | 389 kts | 40° |
| 2026-05-04 14:34 | 50.54059 | 14.69287 | 39437 ft | 389 kts | 40° |
| 2026-05-04 14:34 | 50.58065 | 14.75020 | 39437 ft | 389 kts | 40° |
| 2026-05-04 14:35 | 50.62078 | 14.80748 | 39436 ft | 389 kts | 40° |
| 2026-05-04 14:35 | 50.66072 | 14.86451 | 39441 ft | 389 kts | 40° |
| 2026-05-04 14:36 | 50.70055 | 14.92218 | 39446 ft | 389 kts | 40° |
| 2026-05-04 14:36 | 50.74038 | 14.98003 | 39446 ft | 389 kts | 40° |
| 2026-05-04 14:37 | 50.78004 | 15.03798 | 39439 ft | 389 kts | 41° |
| 2026-05-04 14:37 | 50.81970 | 15.09618 | 39439 ft | 388 kts | 41° |
| 2026-05-04 14:38 | 50.85932 | 15.15445 | 39443 ft | 389 kts | 41° |
| 2026-05-04 14:38 | 50.89890 | 15.21277 | 39443 ft | 389 kts | 41° |
| 2026-05-04 14:39 | 50.93853 | 15.27127 | 39437 ft | 389 kts | 41° |
| 2026-05-04 14:39 | 50.97878 | 15.32758 | 39437 ft | 388 kts | 37° |
| 2026-05-04 14:40 | 51.04392 | 15.40364 | 39449 ft | 387 kts | 34° |
| 2026-05-04 14:40 | 51.08778 | 15.45360 | 39449 ft | 387 kts | 34° |
| 2026-05-04 14:41 | 51.13137 | 15.50435 | 39444 ft | 388 kts | 35° |
| 2026-05-04 14:42 | 51.21765 | 15.60703 | 39449 ft | 390 kts | 35° |
| 2026-05-04 14:42 | 51.26146 | 15.65914 | 39449 ft | 393 kts | 35° |
| 2026-05-04 14:43 | 51.30495 | 15.71100 | 39445 ft | 393 kts | 35° |
| 2026-05-04 14:43 | 51.34877 | 15.76333 | 39442 ft | 393 kts | 35° |
| 2026-05-04 14:44 | 51.39265 | 15.81583 | 39443 ft | 393 kts | 35° |
| 2026-05-04 14:44 | 51.43661 | 15.86821 | 39440 ft | 393 kts | 34° |
| 2026-05-04 14:45 | 51.48059 | 15.92027 | 39438 ft | 393 kts | 35° |
| 2026-05-04 14:45 | 51.52441 | 15.97213 | 39436 ft | 393 kts | 34° |
| 2026-05-04 14:46 | 51.56847 | 16.02430 | 39436 ft | 393 kts | 35° |
| 2026-05-04 14:46 | 51.61222 | 16.07719 | 39436 ft | 393 kts | 36° |
| 2026-05-04 14:47 | 51.65561 | 16.13102 | 39436 ft | 393 kts | 36° |
| 2026-05-04 14:47 | 51.69899 | 16.18424 | 39436 ft | 391 kts | 36° |
| 2026-05-04 14:48 | 51.74190 | 16.23733 | 39435 ft | 390 kts | 36° |
| 2026-05-04 14:48 | 51.78499 | 16.29086 | 39436 ft | 390 kts | 36° |
| 2026-05-04 14:49 | 51.82820 | 16.34385 | 39436 ft | 389 kts | 36° |
| 2026-05-04 14:49 | 51.87120 | 16.39665 | 38873 ft | 388 kts | 36° |
| 2026-05-04 14:50 | 51.89244 | 16.42288 | 38337 ft | 383 kts | 36° |
| 2026-05-04 14:50 | 51.91351 | 16.44899 | 37759 ft | 378 kts | 36° |
| 2026-05-04 14:50 | 51.93428 | 16.47473 | 37165 ft | 374 kts | 36° |
| 2026-05-04 14:50 | 51.95486 | 16.50018 | 36566 ft | 370 kts | 37° |
| 2026-05-04 14:51 | 51.97523 | 16.52527 | 35967 ft | 365 kts | 37° |
| 2026-05-04 14:51 | 51.99514 | 16.54965 | 35375 ft | 361 kts | 37° |
| 2026-05-04 14:51 | 52.01513 | 16.57395 | 34776 ft | 357 kts | 37° |
| 2026-05-04 14:51 | 52.03496 | 16.59798 | 34176 ft | 353 kts | 37° |
| 2026-05-04 14:52 | 52.05451 | 16.62187 | 33576 ft | 351 kts | 37° |
| 2026-05-04 14:52 | 52.07408 | 16.64582 | 32978 ft | 354 kts | 37° |
| 2026-05-04 14:52 | 52.09366 | 16.66979 | 32378 ft | 350 kts | 37° |
| 2026-05-04 14:52 | 52.11307 | 16.69349 | 31777 ft | 347 kts | 37° |
| 2026-05-04 14:53 | 52.13232 | 16.71698 | 31175 ft | 343 kts | 37° |
| 2026-05-04 14:53 | 52.15136 | 16.74017 | 30574 ft | 340 kts | 37° |
| 2026-05-04 14:53 | 52.17025 | 16.76309 | 29990 ft | 339 kts | 37° |
| 2026-05-04 14:53 | 52.18922 | 16.78612 | 29412 ft | 339 kts | 37° |
| 2026-05-04 14:54 | 52.20780 | 16.80875 | 28844 ft | 337 kts | 37° |
| 2026-05-04 14:54 | 52.22652 | 16.83167 | 28268 ft | 335 kts | 37° |
| 2026-05-04 14:54 | 52.24510 | 16.85457 | 27691 ft | 333 kts | 37° |
| 2026-05-04 14:54 | 52.26344 | 16.87732 | 27386 ft | 332 kts | 37° |
| 2026-05-04 14:55 | 52.28184 | 16.90026 | 26915 ft | 331 kts | 37° |
| 2026-05-04 14:55 | 52.30005 | 16.92314 | 26385 ft | 330 kts | 38° |
| 2026-05-04 14:55 | 52.31774 | 16.94691 | 25819 ft | 328 kts | 40° |
| 2026-05-04 14:55 | 52.33432 | 16.97241 | 25247 ft | 327 kts | 44° |
| 2026-05-04 14:56 | 52.35000 | 16.99935 | 24675 ft | 326 kts | 46° |
| 2026-05-04 14:56 | 52.36511 | 17.02693 | 24118 ft | 325 kts | 47° |
| 2026-05-04 14:56 | 52.37976 | 17.05437 | 23573 ft | 323 kts | 47° |
| 2026-05-04 14:56 | 52.39463 | 17.08209 | 23021 ft | 323 kts | 47° |
| 2026-05-04 14:57 | 52.40949 | 17.10957 | 22472 ft | 322 kts | 47° |
| 2026-05-04 14:57 | 52.42444 | 17.13705 | 21939 ft | 323 kts | 47° |
| 2026-05-04 14:57 | 52.43953 | 17.16464 | 21411 ft | 326 kts | 46° |
| 2026-05-04 14:57 | 52.45479 | 17.19243 | 20887 ft | 328 kts | 46° |
| 2026-05-04 14:58 | 52.47010 | 17.22025 | 20361 ft | 328 kts | 46° |
| 2026-05-04 14:58 | 52.48519 | 17.24763 | 19842 ft | 327 kts | 46° |
| 2026-05-04 14:58 | 52.50046 | 17.27530 | 19316 ft | 327 kts | 46° |
| 2026-05-04 14:58 | 52.51588 | 17.30321 | 18785 ft | 326 kts | 46° |
| 2026-05-04 14:59 | 52.53116 | 17.33084 | 18258 ft | 325 kts | 46° |
| 2026-05-04 14:59 | 52.54618 | 17.35796 | 17739 ft | 324 kts | 46° |
| 2026-05-04 14:59 | 52.57645 | 17.41263 | 17002 ft | 322 kts | 46° |
| 2026-05-04 15:00 | 52.59152 | 17.43990 | 16504 ft | 320 kts | 46° |
| 2026-05-04 15:00 | 52.60650 | 17.46703 | 16002 ft | 319 kts | 47° |
| 2026-05-04 15:00 | 52.62140 | 17.49401 | 15502 ft | 318 kts | 47° |
| 2026-05-04 15:01 | 52.65121 | 17.54733 | 14512 ft | 316 kts | 46° |
| 2026-05-04 15:01 | 52.66600 | 17.57381 | 14082 ft | 313 kts | 46° |
| 2026-05-04 15:01 | 52.68056 | 17.59988 | 13661 ft | 312 kts | 46° |
| 2026-05-04 15:01 | 52.69522 | 17.62614 | 13235 ft | 310 kts | 46° |
| 2026-05-04 15:02 | 52.70978 | 17.65232 | 12809 ft | 308 kts | 46° |
| 2026-05-04 15:02 | 52.72423 | 17.67839 | 12384 ft | 307 kts | 45° |
| 2026-05-04 15:02 | 52.73873 | 17.70428 | 11958 ft | 306 kts | 45° |
| 2026-05-04 15:02 | 52.75328 | 17.72998 | 11531 ft | 304 kts | 45° |
| 2026-05-04 15:03 | 52.76772 | 17.75548 | 11105 ft | 303 kts | 45° |
| 2026-05-04 15:03 | 52.78186 | 17.78065 | 10684 ft | 301 kts | 45° |
| 2026-05-04 15:03 | 52.79609 | 17.80598 | 10474 ft | 301 kts | 45° |
| 2026-05-04 15:03 | 52.81022 | 17.83158 | 10402 ft | 301 kts | 45° |
| 2026-05-04 15:04 | 52.82430 | 17.85724 | 10384 ft | 301 kts | 45° |
| 2026-05-04 15:04 | 52.83844 | 17.88286 | 10378 ft | 301 kts | 45° |
| 2026-05-04 15:04 | 52.85249 | 17.90859 | 10377 ft | 301 kts | 46° |
| 2026-05-04 15:04 | 52.86655 | 17.93446 | 10377 ft | 301 kts | 46° |
| 2026-05-04 15:05 | 52.88058 | 17.96034 | 10377 ft | 301 kts | 46° |
| 2026-05-04 15:05 | 52.89334 | 17.98390 | 10377 ft | 301 kts | 46° |
| 2026-05-04 15:05 | 52.90736 | 18.00981 | 10328 ft | 303 kts | 46° |
| 2026-05-04 15:05 | 52.92124 | 18.03554 | 9925 ft | 293 kts | 46° |
| 2026-05-04 15:06 | 52.93447 | 18.06023 | 9520 ft | 281 kts | 45° |
| 2026-05-04 15:06 | 52.94721 | 18.08419 | 9114 ft | 272 kts | 46° |
| 2026-05-04 15:06 | 52.95946 | 18.10702 | 8717 ft | 265 kts | 45° |
| 2026-05-04 15:07 | 52.98372 | 18.15190 | 7752 ft | 260 kts | 45° |
| 2026-05-04 15:07 | 52.99586 | 18.17443 | 7202 ft | 262 kts | 45° |
| 2026-05-04 15:07 | 53.00891 | 18.19537 | 6646 ft | 261 kts | 35° |
| 2026-05-04 15:07 | 53.02419 | 18.21185 | 6104 ft | 261 kts | 28° |
| 2026-05-04 15:08 | 53.04015 | 18.22651 | 5573 ft | 263 kts | 26° |
| 2026-05-04 15:08 | 53.05610 | 18.24039 | 5313 ft | 254 kts | 25° |
| 2026-05-04 15:08 | 53.07091 | 18.25500 | 5121 ft | 247 kts | 34° |
| 2026-05-04 15:08 | 53.08342 | 18.27368 | 5027 ft | 237 kts | 42° |
| 2026-05-04 15:09 | 53.09474 | 18.29338 | 4788 ft | 235 kts | 44° |
| 2026-05-04 15:09 | 53.10580 | 18.31341 | 4411 ft | 236 kts | 44° |
| 2026-05-04 15:09 | 53.11899 | 18.32912 | 3987 ft | 234 kts | 20° |
| 2026-05-04 15:10 | 53.14781 | 18.31879 | 3556 ft | 216 kts | 316° |
| 2026-05-04 15:10 | 53.15449 | 18.29699 | 3352 ft | 213 kts | 283° |
| 2026-05-04 15:10 | 53.14300 | 18.25417 | 2970 ft | 214 kts | 221° |
| 2026-05-04 15:11 | 53.13141 | 18.23928 | 2772 ft | 212 kts | 226° |
| 2026-05-04 15:11 | 53.12319 | 18.21929 | 2592 ft | 208 kts | 241° |
| 2026-05-04 15:11 | 53.11649 | 18.19802 | 2393 ft | 207 kts | 244° |
| 2026-05-04 15:11 | 53.11192 | 18.17553 | 2197 ft | 204 kts | 259° |
| 2026-05-04 15:12 | 53.11079 | 18.15980 | 2106 ft | 201 kts | 266° |
| 2026-05-04 15:12 | 53.11017 | 18.13708 | 2012 ft | 193 kts | 268° |
| 2026-05-04 15:12 | 53.10914 | 18.11633 | 1964 ft | 174 kts | 264° |
| 2026-05-04 15:12 | 53.10730 | 18.09671 | 1702 ft | 167 kts | 261° |
| 2026-05-04 15:13 | 53.10545 | 18.07925 | 1634 ft | 148 kts | 261° |
| 2026-05-04 15:13 | 53.10381 | 18.06234 | 1293 ft | 148 kts | 263° |
| 2026-05-04 15:13 | 53.10229 | 18.04534 | 949 ft | 148 kts | 262° |
| 2026-05-04 15:13 | 53.10101 | 18.02871 | 679 ft | 144 kts | 262° |
| 2026-05-04 15:14 | 53.09978 | 18.01244 | 458 ft | 138 kts | 263° |
| 2026-05-04 15:14 | 53.09850 | 17.99780 | 323 ft | 124 kts | 262° |
| 2026-05-04 15:14 | 53.09730 | 17.98435 | 246 ft | 102 kts | 262° |
| 2026-05-04 15:14 | 53.09671 | 17.97727 | 246 ft | 31 kts | 263° |
| 2026-05-04 15:15 | 53.09644 | 17.97373 | 246 ft | 27 kts | 263° |
| 2026-05-04 15:15 | 53.09625 | 17.97127 | 246 ft | 22 kts | 263° |
| 2026-05-04 15:15 | 53.09609 | 17.96925 | 246 ft | 17 kts | 260° |
| 2026-05-04 15:16 | 53.09451 | 17.96840 | 246 ft | 11 kts | 172° |
| 2026-05-04 15:16 | 53.09365 | 17.96859 | 246 ft | 14 kts | 168° |
| 2026-05-04 15:16 | 53.09364 | 17.97165 | 246 ft | 19 kts | 82° |
| 2026-05-04 15:17 | 53.09381 | 17.97360 | 246 ft | 16 kts | 82° |
| 2026-05-04 15:17 | 53.09413 | 17.97747 | 246 ft | 16 kts | 82° |
| 2026-05-04 15:17 | 53.09429 | 17.97933 | 246 ft | 15 kts | 82° |
| 2026-05-04 15:18 | 53.09444 | 17.98110 | 246 ft | 14 kts | 82° |
| 2026-05-04 15:18 | 53.09459 | 17.98299 | 246 ft | 19 kts | 82° |
| 2026-05-04 15:18 | 53.09477 | 17.98504 | 246 ft | 16 kts | 82° |
| 2026-05-04 15:19 | 53.09511 | 17.98913 | 246 ft | 22 kts | 82° |
| 2026-05-04 15:19 | 53.09532 | 17.99164 | 246 ft | 18 kts | 82° |
| 2026-05-04 15:19 | 53.09568 | 17.99587 | 246 ft | 19 kts | 82° |
| 2026-05-04 15:20 | 53.09579 | 17.99675 | 246 ft | 5 kts | 46° |
| 2026-05-04 15:20 | 53.09601 | 17.99707 | 246 ft | 2 kts | 55° |
| 2026-05-04 15:20 | 53.09596 | 17.99720 | 246 ft | 1 kts | 168° |
| 2026-05-04 15:20 | 53.09592 | 17.99719 | 246 ft | 0 kts | 202° |